createdAt,value
2023-03-29T00:00:44.378Z,1.38
2023-03-29T00:03:12.391Z,0.70
2023-03-29T00:05:41.157Z,0.63
2023-03-29T00:08:08.100Z,0.52
2023-03-29T00:10:34.718Z,0.65
2023-03-29T00:13:01.662Z,0.40
2023-03-29T00:15:28.010Z,0.30
2023-03-29T00:17:54.528Z,0.30
2023-03-29T00:20:20.997Z,0.40
2023-03-29T00:22:47.270Z,0.95
2023-03-29T00:25:13.871Z,1.83
2023-03-29T00:27:40.287Z,1.60
2023-03-29T00:30:07.318Z,1.77
2023-03-29T00:32:34.236Z,1.23
2023-03-29T00:35:01.007Z,0.98
2023-03-29T00:37:30.025Z,1.40
2023-03-29T00:39:56.847Z,0.90
2023-03-29T00:42:23.649Z,0.60
2023-03-29T00:44:53.129Z,0.73
2023-03-29T00:47:25.786Z,0.63
2023-03-29T00:49:52.555Z,0.80
2023-03-29T00:52:21.415Z,0.70
2023-03-29T00:54:50.107Z,0.93
2023-03-29T00:57:17.763Z,0.70
2023-03-29T00:59:45.152Z,0.80
2023-03-29T01:02:11.659Z,0.50
2023-03-29T01:04:42.605Z,0.50
2023-03-29T01:07:14.151Z,0.60
2023-03-29T01:09:43.198Z,1.00
2023-03-29T01:12:17.187Z,1.23
2023-03-29T01:14:55.909Z,1.30
2023-03-29T01:17:25.607Z,0.85
2023-03-29T01:19:58.984Z,1.27
2023-03-29T01:22:38.719Z,1.77
2023-03-29T01:25:05.350Z,2.03
2023-03-29T01:27:50.692Z,1.27
2023-03-29T01:30:23.580Z,1.48
2023-03-29T01:32:56.993Z,0.95
2023-03-29T01:35:38.405Z,0.85
2023-03-29T01:38:08.679Z,0.97
2023-03-29T01:40:35.139Z,0.80
2023-03-29T01:43:04.247Z,0.80
2023-03-29T01:45:49.481Z,0.77
2023-03-29T01:48:16.443Z,1.20
2023-03-29T01:50:51.050Z,0.85
2023-03-29T01:53:18.924Z,0.82
2023-03-29T01:55:49.420Z,0.57
2023-03-29T01:58:17.226Z,0.80
2023-03-29T02:00:45.219Z,0.40
2023-03-29T02:03:14.848Z,0.40
2023-03-29T02:05:42.451Z,0.30
2023-03-29T02:08:10.870Z,0.40
2023-03-29T02:10:37.675Z,0.73
2023-03-29T02:13:04.552Z,0.80
2023-03-29T02:15:30.881Z,1.15
2023-03-29T02:17:57.293Z,3.10
2023-03-29T02:20:26.166Z,2.85
2023-03-29T02:22:58.537Z,2.55
2023-03-29T02:25:25.920Z,3.90
2023-03-29T02:27:52.736Z,2.80
2023-03-29T02:30:20.711Z,2.67
2023-03-29T02:32:50.091Z,2.53
2023-03-29T02:35:20.661Z,2.40
2023-03-29T02:37:49.466Z,1.40
2023-03-29T02:40:16.039Z,1.13
2023-03-29T02:42:44.322Z,0.70
2023-03-29T02:45:12.603Z,0.50
2023-03-29T02:47:41.648Z,2.30
2023-03-29T02:50:08.592Z,1.50
2023-03-29T02:52:37.281Z,1.40
2023-03-29T02:55:05.394Z,2.75
2023-03-29T02:57:32.474Z,1.88
2023-03-29T03:00:00.151Z,2.97
2023-03-29T03:02:28.009Z,1.25
2023-03-29T03:04:54.546Z,1.23
2023-03-29T03:07:21.038Z,0.98
2023-03-29T03:09:47.837Z,1.50
2023-03-29T03:12:14.153Z,1.83
2023-03-29T03:14:40.514Z,1.30
2023-03-29T03:17:06.799Z,0.88
2023-03-29T03:19:33.366Z,1.33
2023-03-29T03:21:59.875Z,0.88
2023-03-29T03:24:28.036Z,0.40
2023-03-29T03:26:54.477Z,0.60
2023-03-29T03:29:20.856Z,0.77
2023-03-29T03:31:47.168Z,2.28
2023-03-29T03:34:13.526Z,1.48
2023-03-29T03:36:39.890Z,2.10
2023-03-29T03:39:07.292Z,1.45
2023-03-29T03:41:34.218Z,1.02
2023-03-29T03:44:00.872Z,0.73
2023-03-29T03:46:29.486Z,0.50
2023-03-29T03:48:56.315Z,0.40
2023-03-29T03:51:22.725Z,0.73
2023-03-29T03:53:49.050Z,0.50
2023-03-29T03:56:16.372Z,0.90
2023-03-29T03:58:42.700Z,0.70
2023-03-29T04:01:09.977Z,0.40
2023-03-29T04:03:37.630Z,0.40
2023-03-29T04:06:04.210Z,0.50
2023-03-29T04:08:30.951Z,0.30
2023-03-29T04:10:58.405Z,0.30
2023-03-29T04:13:25.624Z,0.35
2023-03-29T04:15:56.490Z,0.30
2023-03-29T04:20:50.609Z,0.30
2023-03-29T04:23:18.213Z,1.65
2023-03-29T04:25:44.599Z,0.57
2023-03-29T04:28:11.615Z,0.73
2023-03-29T04:30:38.019Z,0.75
2023-03-29T04:33:04.493Z,0.90
2023-03-29T04:35:30.902Z,1.15
2023-03-29T04:37:57.411Z,0.90
2023-03-29T04:40:23.755Z,1.20
2023-03-29T04:42:51.710Z,1.50
2023-03-29T04:45:18.535Z,1.05
2023-03-29T04:47:45.692Z,1.20
2023-03-29T04:50:12.625Z,2.33
2023-03-29T04:52:38.980Z,2.80
2023-03-29T04:55:05.984Z,2.45
2023-03-29T04:57:32.352Z,2.20
2023-03-29T04:59:58.850Z,1.35
2023-03-29T05:02:25.256Z,2.47
2023-03-29T05:04:52.153Z,1.70
2023-03-29T05:07:19.218Z,1.13
2023-03-29T05:09:45.634Z,1.75
2023-03-29T05:12:12.161Z,3.35
2023-03-29T05:14:38.466Z,4.20
2023-03-29T05:17:05.269Z,3.33
2023-03-29T05:19:32.028Z,2.38
2023-03-29T05:21:59.068Z,3.97
2023-03-29T05:24:25.744Z,3.78
2023-03-29T05:26:52.384Z,4.75
2023-03-29T05:29:18.922Z,3.30
2023-03-29T05:31:45.292Z,3.08
2023-03-29T05:34:11.847Z,2.97
2023-03-29T05:36:39.133Z,2.67
2023-03-29T05:39:06.679Z,2.03
2023-03-29T05:41:33.706Z,2.97
2023-03-29T05:44:00.002Z,1.63
2023-03-29T05:46:26.974Z,2.45
2023-03-29T05:48:53.328Z,2.33
2023-03-29T05:51:24.032Z,2.70
2023-03-29T05:53:51.293Z,3.65
2023-03-29T05:56:18.947Z,3.67
2023-03-29T05:58:49.480Z,3.22
2023-03-29T06:01:18.112Z,3.63
2023-03-29T06:03:46.141Z,3.92
2023-03-29T06:06:15.178Z,4.25
2023-03-29T06:08:41.900Z,5.32
2023-03-29T06:11:11.340Z,4.78
2023-03-29T06:13:39.027Z,3.45
2023-03-29T06:16:09.243Z,3.47
2023-03-29T06:18:36.112Z,4.05
2023-03-29T06:21:02.867Z,4.20
2023-03-29T06:23:31.587Z,5.00
2023-03-29T06:26:00.157Z,5.55
2023-03-29T06:28:26.796Z,5.65
2023-03-29T06:30:56.452Z,5.45
2023-03-29T06:33:23.301Z,6.72
2023-03-29T06:35:50.057Z,4.72
2023-03-29T06:38:16.881Z,5.13
2023-03-29T06:40:44.584Z,5.05
2023-03-29T06:43:10.957Z,4.63
2023-03-29T06:45:38.610Z,4.15
2023-03-29T06:48:05.922Z,5.07
2023-03-29T06:50:32.427Z,6.07
2023-03-29T06:52:58.763Z,4.90
2023-03-29T06:55:26.152Z,5.45
2023-03-29T06:57:53.754Z,6.15
2023-03-29T07:00:27.739Z,3.67
2023-03-29T07:02:54.910Z,3.65
2023-03-29T07:05:21.952Z,3.70
2023-03-29T07:07:57.429Z,2.40
2023-03-29T07:10:26.074Z,3.17
2023-03-29T07:12:52.860Z,3.05
2023-03-29T07:15:20.839Z,2.45
2023-03-29T07:17:50.349Z,2.72
2023-03-29T07:20:16.874Z,2.60
2023-03-29T07:22:43.906Z,2.00
2023-03-29T07:25:12.249Z,3.67
2023-03-29T07:27:39.552Z,1.55
2023-03-29T07:30:10.289Z,4.95
2023-03-29T07:32:37.160Z,2.70
2023-03-29T07:35:05.830Z,3.80
2023-03-29T07:37:32.645Z,4.10
2023-03-29T07:40:00.427Z,2.63
2023-03-29T07:42:28.081Z,1.92
2023-03-29T07:44:54.496Z,2.53
2023-03-29T07:47:20.788Z,2.42
2023-03-29T07:49:47.155Z,2.30
2023-03-29T07:52:14.328Z,2.28
2023-03-29T07:54:40.793Z,3.55
2023-03-29T07:57:07.107Z,2.97
2023-03-29T07:59:33.634Z,2.92
2023-03-29T08:02:00.198Z,2.22
2023-03-29T08:04:26.736Z,2.20
2023-03-29T08:06:54.213Z,2.20
2023-03-29T08:09:21.164Z,3.10
2023-03-29T08:11:47.693Z,3.15
2023-03-29T08:14:14.086Z,2.92
2023-03-29T08:16:40.725Z,3.17
2023-03-29T08:19:07.201Z,2.05
2023-03-29T08:21:33.583Z,2.78
2023-03-29T08:23:59.943Z,2.45
2023-03-29T08:26:26.685Z,1.77
2023-03-29T08:28:53.098Z,3.92
2023-03-29T08:31:19.699Z,3.78
2023-03-29T08:33:46.352Z,3.25
2023-03-29T08:36:13.129Z,2.05
2023-03-29T08:38:39.516Z,1.80
2023-03-29T08:41:24.838Z,1.90
2023-03-29T08:43:59.164Z,2.92
2023-03-29T08:46:35.300Z,1.95
2023-03-29T08:49:03.861Z,2.38
2023-03-29T08:51:30.172Z,2.60
2023-03-29T08:54:02.156Z,3.20
2023-03-29T08:58:56.261Z,2.55
2023-03-29T09:01:23.351Z,3.30
2023-03-29T09:04:08.892Z,2.20
2023-03-29T09:06:35.941Z,2.60
2023-03-29T09:09:02.670Z,2.58
2023-03-29T09:11:35.059Z,2.25
2023-03-29T09:14:20.398Z,3.25
2023-03-29T09:17:02.273Z,1.50
2023-03-29T09:19:37.850Z,1.60
2023-03-29T09:22:07.161Z,1.58
2023-03-29T09:24:52.777Z,2.47
2023-03-29T09:27:19.046Z,2.90
2023-03-29T09:29:57.765Z,3.65
2023-03-29T09:32:31.351Z,2.78
2023-03-29T09:35:00.946Z,2.90
2023-03-29T09:37:32.639Z,2.10
2023-03-29T09:39:59.906Z,2.83
2023-03-29T09:42:27.904Z,2.83
2023-03-29T09:44:55.517Z,2.75
2023-03-29T09:47:27.130Z,3.40
2023-03-29T09:49:58.934Z,4.70
2023-03-29T09:52:25.405Z,3.47
2023-03-29T09:54:51.889Z,3.65
2023-03-29T09:57:19.565Z,5.05
2023-03-29T09:59:46.830Z,5.35
2023-03-29T10:02:13.716Z,4.47
2023-03-29T10:04:42.524Z,3.88
2023-03-29T10:07:18.798Z,4.18
2023-03-29T10:09:45.681Z,4.30
2023-03-29T10:12:13.804Z,4.60
2023-03-29T10:14:46.029Z,3.75
2023-03-29T10:17:23.175Z,4.90
2023-03-29T10:19:55.730Z,3.05
2023-03-29T10:22:23.337Z,5.00
2023-03-29T10:24:51.676Z,6.13
2023-03-29T10:27:23.341Z,3.47
2023-03-29T10:29:50.529Z,3.38
2023-03-29T10:32:18.415Z,4.28
2023-03-29T10:34:46.854Z,5.28
2023-03-29T10:37:14.645Z,5.55
2023-03-29T10:39:41.175Z,6.93
2023-03-29T10:42:11.546Z,5.20
2023-03-29T10:44:37.893Z,4.53
2023-03-29T10:47:19.646Z,7.65
2023-03-29T10:49:50.882Z,7.97
2023-03-29T10:52:17.748Z,3.35
2023-03-29T10:54:44.648Z,3.22
2023-03-29T10:57:13.407Z,3.97
2023-03-29T11:00:03.032Z,4.95
2023-03-29T11:02:36.919Z,4.60
2023-03-29T11:05:06.077Z,4.03
2023-03-29T11:07:32.564Z,4.82
2023-03-29T11:10:17.131Z,3.70
2023-03-29T11:12:53.691Z,2.60
2023-03-29T11:15:20.037Z,3.00
2023-03-29T11:17:47.154Z,5.18
2023-03-29T11:20:24.101Z,5.25
2023-03-29T11:23:06.792Z,4.38
2023-03-29T11:25:50.597Z,3.80
2023-03-29T11:28:23.198Z,3.60
2023-03-29T11:30:49.904Z,4.38
2023-03-29T11:33:48.683Z,3.85
2023-03-29T11:36:25.661Z,2.53
2023-03-29T11:38:58.670Z,3.17
2023-03-29T11:41:27.481Z,3.53
2023-03-29T11:44:09.950Z,1.85
2023-03-29T11:46:38.580Z,2.35
2023-03-29T11:49:11.955Z,2.25
2023-03-29T11:51:41.316Z,1.60
2023-03-29T11:54:20.638Z,1.30
2023-03-29T11:56:48.272Z,3.33
2023-03-29T11:59:18.275Z,2.15
2023-03-29T12:01:54.479Z,3.47
2023-03-29T12:04:26.567Z,1.90
2023-03-29T12:06:57.093Z,0.98
2023-03-29T12:09:36.556Z,2.22
2023-03-29T12:12:10.210Z,2.78
2023-03-29T12:14:44.840Z,2.85
2023-03-29T12:17:14.516Z,2.70
2023-03-29T12:19:44.179Z,2.17
2023-03-29T12:22:10.671Z,6.35
2023-03-29T12:24:39.181Z,1.90
2023-03-29T12:27:17.086Z,1.40
2023-03-29T12:29:52.651Z,1.30
2023-03-29T12:32:19.676Z,1.52
2023-03-29T12:34:46.392Z,1.27
2023-03-29T12:37:12.677Z,1.50
2023-03-29T12:39:39.589Z,2.22
2023-03-29T12:42:07.520Z,1.70
2023-03-29T12:44:34.049Z,1.63
2023-03-29T12:47:01.583Z,1.88
2023-03-29T12:49:35.938Z,1.30
2023-03-29T12:52:05.575Z,1.33
2023-03-29T12:54:32.754Z,2.10
2023-03-29T12:57:01.105Z,2.92
2023-03-29T12:59:27.474Z,2.97
2023-03-29T13:01:59.110Z,1.02
2023-03-29T13:04:36.311Z,1.05
2023-03-29T13:07:07.142Z,1.67
2023-03-29T13:09:50.863Z,2.28
2023-03-29T13:12:32.194Z,2.28
2023-03-29T13:15:01.087Z,1.50
2023-03-29T13:17:34.475Z,1.60
2023-03-29T13:20:03.639Z,1.95
2023-03-29T13:22:49.022Z,2.72
2023-03-29T13:25:15.468Z,1.77
2023-03-29T13:27:46.924Z,1.75
2023-03-29T13:30:16.841Z,2.67
2023-03-29T13:32:43.491Z,3.38
2023-03-29T13:35:12.968Z,3.53
2023-03-29T13:37:56.849Z,1.42
2023-03-29T13:40:43.983Z,2.45
2023-03-29T13:43:19.875Z,2.42
2023-03-29T13:46:03.909Z,1.35
2023-03-29T13:48:33.747Z,2.42
2023-03-29T13:51:08.395Z,3.08
2023-03-29T13:53:47.868Z,2.33
2023-03-29T13:56:17.232Z,2.15
2023-03-29T13:58:46.514Z,1.73
2023-03-29T14:01:19.056Z,1.95
2023-03-29T14:03:46.741Z,2.05
2023-03-29T14:06:14.724Z,2.10
2023-03-29T14:08:42.835Z,1.38
2023-03-29T14:11:21.206Z,2.17
2023-03-29T14:13:47.675Z,1.35
2023-03-29T14:16:14.739Z,1.45
2023-03-29T14:18:41.887Z,2.72
2023-03-29T14:21:08.432Z,1.95
2023-03-29T14:23:37.171Z,1.95
2023-03-29T14:26:22.600Z,2.53
2023-03-29T14:28:50.517Z,1.50
2023-03-29T14:31:20.896Z,1.63
2023-03-29T14:33:51.662Z,0.98
2023-03-29T14:36:18.116Z,1.20
2023-03-29T14:38:48.161Z,0.98
2023-03-29T14:41:14.629Z,1.85
2023-03-29T14:43:41.191Z,1.00
2023-03-29T14:46:07.848Z,0.80
2023-03-29T14:48:35.583Z,1.92
2023-03-29T14:51:02.628Z,2.22
2023-03-29T14:53:31.857Z,1.30
2023-03-29T14:55:58.634Z,2.17
2023-03-29T14:58:31.749Z,1.25
2023-03-29T15:00:58.135Z,2.05
2023-03-29T15:03:27.157Z,1.77
2023-03-29T15:05:57.058Z,1.98
2023-03-29T15:08:29.513Z,1.95
2023-03-29T15:10:55.999Z,2.55
2023-03-29T15:13:24.649Z,1.85
2023-03-29T15:15:53.989Z,1.50
2023-03-29T15:18:23.545Z,2.75
2023-03-29T15:20:51.377Z,1.23
2023-03-29T15:23:17.735Z,2.80
2023-03-29T15:26:04.623Z,8.55
2023-03-29T15:28:32.656Z,1.17
2023-03-29T15:31:18.766Z,1.98
2023-03-29T15:33:45.774Z,2.22
2023-03-29T15:36:13.363Z,1.20
2023-03-29T15:38:44.715Z,2.67
2023-03-29T15:43:38.152Z,2.05
2023-03-29T15:46:05.100Z,1.50
2023-03-29T15:48:33.576Z,2.10
2023-03-29T15:51:03.814Z,0.82
2023-03-29T15:55:59.792Z,1.58
2023-03-29T15:58:27.699Z,1.02
2023-03-29T16:00:59.065Z,1.75
2023-03-29T16:03:27.215Z,1.85
2023-03-29T16:05:57.022Z,3.72
2023-03-29T16:08:24.181Z,1.45
2023-03-29T16:10:50.984Z,1.75
2023-03-29T16:13:17.363Z,1.77
2023-03-29T16:15:43.904Z,1.83
2023-03-29T16:18:10.524Z,2.95
2023-03-29T16:20:38.188Z,1.48
2023-03-29T16:23:09.274Z,2.22
2023-03-29T16:25:37.418Z,3.40
2023-03-29T16:28:05.025Z,2.15
2023-03-29T16:30:31.841Z,2.22
2023-03-29T16:32:58.233Z,1.88
2023-03-29T16:35:29.227Z,2.15
2023-03-29T16:37:55.867Z,3.23
2023-03-29T16:40:23.835Z,2.13
2023-03-29T16:42:50.765Z,2.10
2023-03-29T16:45:17.635Z,2.88
2023-03-29T16:47:44.417Z,2.22
2023-03-29T16:50:14.678Z,4.43
2023-03-29T16:52:41.221Z,1.60
2023-03-29T16:55:08.372Z,1.60
2023-03-29T16:57:35.747Z,2.22
2023-03-29T17:00:02.086Z,2.72
2023-03-29T17:02:28.509Z,1.83
2023-03-29T17:04:55.142Z,1.58
2023-03-29T17:07:21.743Z,2.22
2023-03-29T17:09:48.326Z,1.30
2023-03-29T17:12:14.758Z,2.67
2023-03-29T17:14:41.932Z,1.48
2023-03-29T17:17:08.316Z,1.40
2023-03-29T17:19:34.685Z,1.38
2023-03-29T17:22:01.132Z,1.63
2023-03-29T17:24:27.436Z,2.17
2023-03-29T17:26:53.729Z,1.63
2023-03-29T17:29:20.114Z,2.08
2023-03-29T17:31:47.855Z,2.25
2023-03-29T17:34:15.067Z,2.90
2023-03-29T17:36:41.472Z,3.42
2023-03-29T17:39:09.471Z,2.15
2023-03-29T17:41:36.389Z,3.47
2023-03-29T17:44:02.738Z,1.92
2023-03-29T17:46:29.103Z,1.98
2023-03-29T17:48:55.985Z,2.03
2023-03-29T17:51:23.718Z,2.10
2023-03-29T17:53:52.346Z,3.35
2023-03-29T17:56:22.813Z,2.20
2023-03-29T17:58:49.770Z,4.05
2023-03-29T18:01:19.489Z,2.88
2023-03-29T18:03:47.684Z,6.30
2023-03-29T18:06:16.277Z,4.63
2023-03-29T18:08:42.635Z,4.25
2023-03-29T18:11:11.585Z,3.22
2023-03-29T18:13:38.593Z,3.85
2023-03-29T18:16:07.016Z,2.38
2023-03-29T18:18:34.239Z,3.33
2023-03-29T18:21:01.220Z,3.53
2023-03-29T18:23:27.805Z,3.38
2023-03-29T18:26:02.848Z,3.63
2023-03-29T18:28:29.981Z,4.43
2023-03-29T18:30:56.642Z,3.03
2023-03-29T18:33:23.137Z,1.67
2023-03-29T18:35:52.480Z,1.60
2023-03-29T18:38:20.080Z,1.90
2023-03-29T18:40:47.348Z,2.05
2023-03-29T18:43:13.786Z,1.40
2023-03-29T18:45:40.112Z,0.85
2023-03-29T18:48:08.054Z,1.52
2023-03-29T18:50:34.997Z,1.65
2023-03-29T18:53:01.596Z,2.33
2023-03-29T18:55:28.474Z,2.45
2023-03-29T18:57:54.789Z,2.75
2023-03-29T19:00:21.208Z,1.30
2023-03-29T19:02:47.680Z,1.70
2023-03-29T19:05:14.139Z,2.63
2023-03-29T19:07:40.509Z,1.92
2023-03-29T19:10:08.545Z,2.03
2023-03-29T19:12:35.216Z,2.22
2023-03-29T19:15:01.731Z,2.42
2023-03-29T19:17:28.445Z,2.72
2023-03-29T19:19:56.347Z,2.80
2023-03-29T19:22:22.848Z,2.28
2023-03-29T19:24:50.396Z,3.72
2023-03-29T19:27:16.754Z,2.63
2023-03-29T19:29:43.115Z,2.28
2023-03-29T19:32:09.481Z,2.28
2023-03-29T19:34:36.179Z,1.52
2023-03-29T19:37:02.560Z,2.28
2023-03-29T19:39:29.710Z,2.28
2023-03-29T19:41:56.229Z,2.63
2023-03-29T19:44:25.794Z,2.28
2023-03-29T19:46:52.219Z,1.77
2023-03-29T19:49:18.847Z,3.25
2023-03-29T19:51:45.497Z,2.70
2023-03-29T19:54:14.874Z,2.00
2023-03-29T19:56:42.918Z,2.15
2023-03-29T19:59:14.984Z,2.95
2023-03-29T20:01:51.082Z,3.67
2023-03-29T20:04:18.840Z,4.78
2023-03-29T20:06:45.737Z,5.38
2023-03-29T20:09:12.108Z,4.40
2023-03-29T20:11:38.705Z,4.15
2023-03-29T20:14:05.258Z,3.53
2023-03-29T20:16:34.490Z,3.25
2023-03-29T20:19:01.955Z,1.60
2023-03-29T20:21:28.863Z,2.20
2023-03-29T20:23:55.967Z,2.15
2023-03-29T20:26:22.730Z,1.90
2023-03-29T20:28:49.775Z,2.15
2023-03-29T20:31:16.111Z,1.80
2023-03-29T20:33:44.371Z,2.35
2023-03-29T20:36:11.208Z,1.90
2023-03-29T20:38:37.589Z,1.60
2023-03-29T20:41:04.799Z,2.00
2023-03-29T20:43:37.682Z,1.90
2023-03-29T20:46:04.831Z,1.88
2023-03-29T20:48:31.283Z,1.63
2023-03-29T20:50:57.771Z,2.45
2023-03-29T20:53:24.975Z,1.77
2023-03-29T20:55:51.808Z,2.72
2023-03-29T20:58:18.176Z,2.70
2023-03-29T21:00:45.193Z,2.15
2023-03-29T21:03:12.242Z,2.05
2023-03-29T21:05:38.937Z,1.40
2023-03-29T21:08:05.713Z,1.00
2023-03-29T21:10:32.104Z,0.93
2023-03-29T21:13:00.430Z,0.95
2023-03-29T21:15:29.467Z,0.80
2023-03-29T21:17:56.333Z,0.90
2023-03-29T21:20:22.807Z,0.60
2023-03-29T21:22:49.216Z,1.10
2023-03-29T21:25:15.855Z,1.65
2023-03-29T21:27:42.807Z,1.63
2023-03-29T21:30:10.041Z,1.40
2023-03-29T21:32:36.484Z,1.58
2023-03-29T21:35:03.058Z,1.30
2023-03-29T21:37:29.467Z,2.33
2023-03-29T21:39:55.880Z,1.70
2023-03-29T21:42:22.282Z,2.58
2023-03-29T21:44:48.628Z,3.17
2023-03-29T21:47:14.953Z,3.88
2023-03-29T21:49:41.381Z,2.10
2023-03-29T21:52:07.952Z,1.65
2023-03-29T21:54:34.350Z,3.08
2023-03-29T21:57:00.734Z,2.67
2023-03-29T21:59:27.907Z,2.55
2023-03-29T22:01:54.247Z,1.40
2023-03-29T22:04:35.168Z,2.50
2023-03-29T22:07:02.678Z,1.20
2023-03-29T22:09:28.982Z,1.20
2023-03-29T22:11:55.291Z,0.50
2023-03-29T22:14:21.985Z,0.85
2023-03-29T22:16:48.495Z,2.75
2023-03-29T22:19:14.844Z,2.22
2023-03-29T22:21:41.224Z,1.60
2023-03-29T22:24:07.868Z,2.10
2023-03-29T22:26:34.236Z,2.88
2023-03-29T22:29:00.728Z,1.30
2023-03-29T22:31:28.189Z,1.33
2023-03-29T22:33:54.655Z,0.70
2023-03-29T22:36:28.000Z,0.60
2023-03-29T22:38:54.342Z,1.00
2023-03-29T22:41:23.742Z,0.65
2023-03-29T22:43:50.697Z,0.93
2023-03-29T22:46:17.156Z,1.23
2023-03-29T22:48:43.609Z,1.65
2023-03-29T22:51:09.914Z,1.20
2023-03-29T22:53:36.488Z,2.55
2023-03-29T22:56:03.385Z,1.30
2023-03-29T22:58:30.093Z,2.10
2023-03-29T23:00:57.126Z,1.27
2023-03-29T23:03:23.753Z,2.90
2023-03-29T23:05:54.977Z,2.85
2023-03-29T23:08:21.917Z,3.17
2023-03-29T23:10:48.298Z,1.90
2023-03-29T23:13:19.941Z,4.15
2023-03-29T23:15:48.206Z,2.53
2023-03-29T23:18:22.128Z,3.90
2023-03-29T23:20:48.742Z,2.72
2023-03-29T23:23:15.808Z,3.10
2023-03-29T23:25:42.857Z,2.35
2023-03-29T23:28:09.285Z,3.28
2023-03-29T23:30:38.697Z,2.15
2023-03-29T23:33:05.705Z,3.58
2023-03-29T23:35:32.064Z,3.83
2023-03-29T23:37:58.583Z,6.25
2023-03-29T23:40:25.006Z,3.42
2023-03-29T23:42:51.385Z,2.95
2023-03-29T23:45:18.606Z,4.05
2023-03-29T23:47:45.441Z,4.18
2023-03-29T23:50:13.418Z,2.22
2023-03-29T23:52:40.644Z,3.05
2023-03-29T23:55:08.452Z,3.15
2023-03-29T23:57:36.948Z,3.38
